Raybon, Georgia
Current Conditions -  °F | °C
As of 4:15 PM on Saturday 22 Nov 2014 (Local Time) from KAYS Reporting Station
Overcast Overcast  
Wind Chill: 67°   Ceiling: 4700
Heat Index: 67°   Visibility: 10mi
Dew Point: 59°   Wind: 8mph
Humidity: 74%   Direction: 90°E
Pressure: 30.25"   Gusts: NA
Location:  31.1753°N, 81.969°W
Report Text: KAYS 222115Z AUTO 09007KT 10SM SCT041 BKN047 OVC100 20/15 A3025 RMK AO2 T01970150
Loading
Personal Weather Stations






























Interactive Weather Map New forecast layout! Learn more

10-Day Weather Forecast

Advertisements
Track Severe Weather on mobile